sensor_id;sensor_type;location;lat;lon;timestamp;P1;durP1;ratioP1;P2;durP2;ratioP2
72087;SDS011;59961;50.232;8.616;2022-07-23T00:00:42;8.35;;;4.05;;
72087;SDS011;59961;50.232;8.616;2022-07-23T00:03:07;7.87;;;4.27;;
72087;SDS011;59961;50.232;8.616;2022-07-23T00:05:32;12.23;;;4.33;;
72087;SDS011;59961;50.232;8.616;2022-07-23T00:07:57;6.77;;;3.90;;
72087;SDS011;59961;50.232;8.616;2022-07-23T00:10:23;8.25;;;4.18;;
72087;SDS011;59961;50.232;8.616;2022-07-23T00:12:48;9.00;;;4.10;;
72087;SDS011;59961;50.232;8.616;2022-07-23T00:15:13;6.13;;;3.77;;
72087;SDS011;59961;50.232;8.616;2022-07-23T00:17:38;7.53;;;4.37;;
72087;SDS011;59961;50.232;8.616;2022-07-23T00:20:03;7.67;;;4.10;;
72087;SDS011;59961;50.232;8.616;2022-07-23T00:22:29;7.63;;;3.97;;
72087;SDS011;59961;50.232;8.616;2022-07-23T00:24:55;6.50;;;3.87;;
72087;SDS011;59961;50.232;8.616;2022-07-23T00:27:20;7.37;;;3.77;;
72087;SDS011;59961;50.232;8.616;2022-07-23T00:29:45;5.95;;;3.53;;
72087;SDS011;59961;50.232;8.616;2022-07-23T00:32:10;7.25;;;4.40;;
72087;SDS011;59961;50.232;8.616;2022-07-23T00:34:35;7.43;;;4.05;;
72087;SDS011;59961;50.232;8.616;2022-07-23T00:37:00;7.10;;;3.90;;
72087;SDS011;59961;50.232;8.616;2022-07-23T00:39:26;6.82;;;4.00;;
72087;SDS011;59961;50.232;8.616;2022-07-23T00:41:51;7.67;;;4.00;;
72087;SDS011;59961;50.232;8.616;2022-07-23T00:44:17;8.48;;;4.30;;
72087;SDS011;59961;50.232;8.616;2022-07-23T00:46:46;10.15;;;4.20;;
72087;SDS011;59961;50.232;8.616;2022-07-23T00:49:12;8.90;;;4.13;;
72087;SDS011;59961;50.232;8.616;2022-07-23T00:51:37;8.07;;;4.37;;
72087;SDS011;59961;50.232;8.616;2022-07-23T00:54:03;7.60;;;4.13;;
72087;SDS011;59961;50.232;8.616;2022-07-23T00:56:28;7.83;;;4.23;;
72087;SDS011;59961;50.232;8.616;2022-07-23T00:58:54;8.68;;;3.83;;
72087;SDS011;59961;50.232;8.616;2022-07-23T01:01:20;8.45;;;4.22;;
72087;SDS011;59961;50.232;8.616;2022-07-23T01:03:45;8.93;;;4.40;;
72087;SDS011;59961;50.232;8.616;2022-07-23T01:06:10;9.67;;;4.17;;
72087;SDS011;59961;50.232;8.616;2022-07-23T01:08:35;7.27;;;3.97;;
72087;SDS011;59961;50.232;8.616;2022-07-23T01:11:01;9.30;;;4.20;;
72087;SDS011;59961;50.232;8.616;2022-07-23T01:13:26;7.65;;;3.78;;
72087;SDS011;59961;50.232;8.616;2022-07-23T01:15:51;7.70;;;4.23;;
72087;SDS011;59961;50.232;8.616;2022-07-23T01:18:17;8.10;;;4.40;;
72087;SDS011;59961;50.232;8.616;2022-07-23T01:20:42;7.43;;;4.03;;
72087;SDS011;59961;50.232;8.616;2022-07-23T01:23:07;8.57;;;4.70;;
72087;SDS011;59961;50.232;8.616;2022-07-23T01:25:32;8.70;;;4.78;;
72087;SDS011;59961;50.232;8.616;2022-07-23T01:27:57;7.57;;;4.30;;
72087;SDS011;59961;50.232;8.616;2022-07-23T01:30:22;10.37;;;4.40;;
72087;SDS011;59961;50.232;8.616;2022-07-23T01:32:48;7.37;;;3.77;;
72087;SDS011;59961;50.232;8.616;2022-07-23T01:35:13;7.97;;;4.57;;
72087;SDS011;59961;50.232;8.616;2022-07-23T01:37:38;8.40;;;4.57;;
72087;SDS011;59961;50.232;8.616;2022-07-23T01:40:04;7.80;;;4.07;;
72087;SDS011;59961;50.232;8.616;2022-07-23T01:42:29;8.17;;;4.13;;
72087;SDS011;59961;50.232;8.616;2022-07-23T01:44:54;7.43;;;4.13;;
72087;SDS011;59961;50.232;8.616;2022-07-23T01:47:19;8.23;;;3.80;;
72087;SDS011;59961;50.232;8.616;2022-07-23T01:49:45;10.00;;;4.47;;
72087;SDS011;59961;50.232;8.616;2022-07-23T01:52:10;8.57;;;4.17;;
72087;SDS011;59961;50.232;8.616;2022-07-23T01:54:36;12.93;;;4.55;;
72087;SDS011;59961;50.232;8.616;2022-07-23T01:57:01;8.27;;;4.33;;
72087;SDS011;59961;50.232;8.616;2022-07-23T01:59:27;7.85;;;4.40;;
72087;SDS011;59961;50.232;8.616;2022-07-23T02:01:52;8.43;;;4.73;;
72087;SDS011;59961;50.232;8.616;2022-07-23T02:04:18;8.70;;;4.38;;
72087;SDS011;59961;50.232;8.616;2022-07-23T02:06:44;8.33;;;4.50;;
72087;SDS011;59961;50.232;8.616;2022-07-23T02:09:09;9.00;;;4.47;;
72087;SDS011;59961;50.232;8.616;2022-07-23T02:11:34;8.67;;;4.53;;
72087;SDS011;59961;50.232;8.616;2022-07-23T02:13:59;9.10;;;4.93;;
72087;SDS011;59961;50.232;8.616;2022-07-23T02:16:24;8.17;;;4.93;;
72087;SDS011;59961;50.232;8.616;2022-07-23T02:18:49;8.90;;;4.80;;
72087;SDS011;59961;50.232;8.616;2022-07-23T02:21:15;8.45;;;4.45;;
72087;SDS011;59961;50.232;8.616;2022-07-23T02:23:40;8.75;;;4.65;;
72087;SDS011;59961;50.232;8.616;2022-07-23T02:26:05;8.67;;;4.80;;
72087;SDS011;59961;50.232;8.616;2022-07-23T02:28:30;9.30;;;4.50;;
72087;SDS011;59961;50.232;8.616;2022-07-23T02:30:55;7.70;;;4.77;;
72087;SDS011;59961;50.232;8.616;2022-07-23T02:33:20;8.33;;;4.53;;
72087;SDS011;59961;50.232;8.616;2022-07-23T02:35:46;9.73;;;4.78;;
72087;SDS011;59961;50.232;8.616;2022-07-23T02:38:11;9.70;;;4.60;;
72087;SDS011;59961;50.232;8.616;2022-07-23T02:40:36;9.47;;;4.53;;
72087;SDS011;59961;50.232;8.616;2022-07-23T02:43:01;8.07;;;4.53;;
72087;SDS011;59961;50.232;8.616;2022-07-23T02:45:26;7.30;;;4.60;;
72087;SDS011;59961;50.232;8.616;2022-07-23T02:47:51;10.07;;;4.60;;
72087;SDS011;59961;50.232;8.616;2022-07-23T02:50:17;7.57;;;4.30;;
72087;SDS011;59961;50.232;8.616;2022-07-23T02:52:42;7.83;;;4.03;;
72087;SDS011;59961;50.232;8.616;2022-07-23T02:55:07;8.50;;;4.70;;
72087;SDS011;59961;50.232;8.616;2022-07-23T02:57:32;8.43;;;4.43;;
72087;SDS011;59961;50.232;8.616;2022-07-23T02:59:57;9.60;;;4.63;;
72087;SDS011;59961;50.232;8.616;2022-07-23T03:02:23;8.47;;;4.53;;
72087;SDS011;59961;50.232;8.616;2022-07-23T03:04:48;7.90;;;4.53;;
72087;SDS011;59961;50.232;8.616;2022-07-23T03:07:15;8.43;;;4.53;;
72087;SDS011;59961;50.232;8.616;2022-07-23T03:09:40;8.37;;;4.70;;
72087;SDS011;59961;50.232;8.616;2022-07-23T03:12:05;9.43;;;4.87;;
72087;SDS011;59961;50.232;8.616;2022-07-23T03:14:30;12.63;;;4.43;;
72087;SDS011;59961;50.232;8.616;2022-07-23T03:16:56;11.27;;;5.67;;
72087;SDS011;59961;50.232;8.616;2022-07-23T03:19:21;8.70;;;4.63;;
72087;SDS011;59961;50.232;8.616;2022-07-23T03:21:46;11.87;;;5.30;;
72087;SDS011;59961;50.232;8.616;2022-07-23T03:24:11;8.95;;;4.85;;
72087;SDS011;59961;50.232;8.616;2022-07-23T03:26:36;9.17;;;4.83;;
72087;SDS011;59961;50.232;8.616;2022-07-23T03:29:03;10.30;;;4.57;;
72087;SDS011;59961;50.232;8.616;2022-07-23T03:31:29;7.90;;;4.22;;
72087;SDS011;59961;50.232;8.616;2022-07-23T03:33:55;9.60;;;5.30;;
72087;SDS011;59961;50.232;8.616;2022-07-23T03:36:20;10.07;;;5.33;;
72087;SDS011;59961;50.232;8.616;2022-07-23T03:38:45;8.77;;;5.13;;
72087;SDS011;59961;50.232;8.616;2022-07-23T03:41:10;9.83;;;4.20;;
72087;SDS011;59961;50.232;8.616;2022-07-23T03:43:35;8.00;;;4.20;;
72087;SDS011;59961;50.232;8.616;2022-07-23T03:46:00;10.27;;;4.70;;
72087;SDS011;59961;50.232;8.616;2022-07-23T03:48:25;9.50;;;5.60;;
72087;SDS011;59961;50.232;8.616;2022-07-23T03:50:51;9.77;;;5.37;;
72087;SDS011;59961;50.232;8.616;2022-07-23T03:53:16;14.80;;;5.43;;
72087;SDS011;59961;50.232;8.616;2022-07-23T03:55:41;10.57;;;5.13;;
72087;SDS011;59961;50.232;8.616;2022-07-23T03:58:06;9.67;;;4.87;;
72087;SDS011;59961;50.232;8.616;2022-07-23T04:00:31;10.27;;;5.60;;
72087;SDS011;59961;50.232;8.616;2022-07-23T04:02:57;9.20;;;5.43;;
72087;SDS011;59961;50.232;8.616;2022-07-23T04:05:22;9.60;;;5.47;;
72087;SDS011;59961;50.232;8.616;2022-07-23T04:07:47;11.37;;;5.77;;
72087;SDS011;59961;50.232;8.616;2022-07-23T04:10:12;11.27;;;5.63;;
72087;SDS011;59961;50.232;8.616;2022-07-23T04:12:37;11.57;;;5.43;;
72087;SDS011;59961;50.232;8.616;2022-07-23T04:15:03;11.17;;;6.43;;
72087;SDS011;59961;50.232;8.616;2022-07-23T04:17:28;11.63;;;6.37;;
72087;SDS011;59961;50.232;8.616;2022-07-23T04:19:53;10.30;;;5.40;;
72087;SDS011;59961;50.232;8.616;2022-07-23T04:22:19;12.40;;;6.07;;
72087;SDS011;59961;50.232;8.616;2022-07-23T04:24:44;9.77;;;5.13;;
72087;SDS011;59961;50.232;8.616;2022-07-23T04:27:09;10.75;;;4.35;;
72087;SDS011;59961;50.232;8.616;2022-07-23T04:29:34;10.17;;;5.23;;
72087;SDS011;59961;50.232;8.616;2022-07-23T04:31:59;10.10;;;5.40;;
72087;SDS011;59961;50.232;8.616;2022-07-23T04:34:24;7.68;;;3.97;;
72087;SDS011;59961;50.232;8.616;2022-07-23T04:36:51;10.48;;;5.68;;
72087;SDS011;59961;50.232;8.616;2022-07-23T04:39:16;11.83;;;6.27;;
72087;SDS011;59961;50.232;8.616;2022-07-23T04:41:41;8.70;;;4.97;;
72087;SDS011;59961;50.232;8.616;2022-07-23T04:44:06;14.13;;;6.13;;
72087;SDS011;59961;50.232;8.616;2022-07-23T04:46:32;10.87;;;5.40;;
72087;SDS011;59961;50.232;8.616;2022-07-23T04:48:57;11.13;;;5.77;;
72087;SDS011;59961;50.232;8.616;2022-07-23T04:51:22;11.37;;;5.70;;
72087;SDS011;59961;50.232;8.616;2022-07-23T04:53:47;10.50;;;3.93;;
72087;SDS011;59961;50.232;8.616;2022-07-23T04:56:12;11.20;;;6.23;;
72087;SDS011;59961;50.232;8.616;2022-07-23T04:58:38;12.03;;;4.90;;
72087;SDS011;59961;50.232;8.616;2022-07-23T05:01:03;13.53;;;6.30;;
72087;SDS011;59961;50.232;8.616;2022-07-23T05:03:28;10.40;;;5.53;;
72087;SDS011;59961;50.232;8.616;2022-07-23T05:05:53;11.80;;;5.87;;
72087;SDS011;59961;50.232;8.616;2022-07-23T05:08:19;10.88;;;5.53;;
72087;SDS011;59961;50.232;8.616;2022-07-23T05:10:44;12.17;;;6.40;;
72087;SDS011;59961;50.232;8.616;2022-07-23T05:13:09;12.40;;;5.53;;
72087;SDS011;59961;50.232;8.616;2022-07-23T05:15:34;9.87;;;5.63;;
72087;SDS011;59961;50.232;8.616;2022-07-23T05:17:59;12.17;;;6.20;;
72087;SDS011;59961;50.232;8.616;2022-07-23T05:20:24;11.37;;;5.80;;
72087;SDS011;59961;50.232;8.616;2022-07-23T05:22:51;12.10;;;5.35;;
72087;SDS011;59961;50.232;8.616;2022-07-23T05:25:16;11.17;;;5.87;;
72087;SDS011;59961;50.232;8.616;2022-07-23T05:27:41;9.30;;;5.20;;
72087;SDS011;59961;50.232;8.616;2022-07-23T05:30:07;10.47;;;5.00;;
72087;SDS011;59961;50.232;8.616;2022-07-23T05:32:32;9.70;;;4.53;;
72087;SDS011;59961;50.232;8.616;2022-07-23T05:34:57;8.83;;;4.87;;
72087;SDS011;59961;50.232;8.616;2022-07-23T05:37:22;9.88;;;5.22;;
72087;SDS011;59961;50.232;8.616;2022-07-23T05:39:48;8.65;;;4.70;;
72087;SDS011;59961;50.232;8.616;2022-07-23T05:42:13;10.17;;;4.90;;
72087;SDS011;59961;50.232;8.616;2022-07-23T05:44:38;9.67;;;5.10;;
72087;SDS011;59961;50.232;8.616;2022-07-23T05:47:03;11.33;;;5.60;;
72087;SDS011;59961;50.232;8.616;2022-07-23T05:49:28;11.87;;;5.17;;
72087;SDS011;59961;50.232;8.616;2022-07-23T05:51:53;9.95;;;5.00;;
72087;SDS011;59961;50.232;8.616;2022-07-23T05:54:19;10.13;;;4.20;;
72087;SDS011;59961;50.232;8.616;2022-07-23T05:56:44;9.57;;;4.70;;
72087;SDS011;59961;50.232;8.616;2022-07-23T05:59:09;9.40;;;4.70;;
72087;SDS011;59961;50.232;8.616;2022-07-23T06:01:34;10.93;;;4.70;;
72087;SDS011;59961;50.232;8.616;2022-07-23T06:03:59;8.03;;;4.83;;
72087;SDS011;59961;50.232;8.616;2022-07-23T06:06:24;9.33;;;4.50;;
72087;SDS011;59961;50.232;8.616;2022-07-23T06:08:50;7.47;;;4.60;;
72087;SDS011;59961;50.232;8.616;2022-07-23T06:11:15;8.70;;;4.23;;
72087;SDS011;59961;50.232;8.616;2022-07-23T06:13:40;9.20;;;4.17;;
72087;SDS011;59961;50.232;8.616;2022-07-23T06:16:05;8.50;;;4.17;;
72087;SDS011;59961;50.232;8.616;2022-07-23T06:18:30;8.77;;;4.47;;
72087;SDS011;59961;50.232;8.616;2022-07-23T06:20:55;9.27;;;4.40;;
72087;SDS011;59961;50.232;8.616;2022-07-23T06:23:21;7.70;;;4.20;;
72087;SDS011;59961;50.232;8.616;2022-07-23T06:25:46;9.57;;;4.47;;
72087;SDS011;59961;50.232;8.616;2022-07-23T06:28:11;8.40;;;4.30;;
72087;SDS011;59961;50.232;8.616;2022-07-23T06:30:36;8.57;;;4.00;;
72087;SDS011;59961;50.232;8.616;2022-07-23T06:33:01;8.37;;;4.00;;
72087;SDS011;59961;50.232;8.616;2022-07-23T06:35:26;7.70;;;4.27;;
72087;SDS011;59961;50.232;8.616;2022-07-23T06:37:52;12.27;;;4.23;;
72087;SDS011;59961;50.232;8.616;2022-07-23T06:40:17;6.75;;;3.30;;
72087;SDS011;59961;50.232;8.616;2022-07-23T06:42:42;6.50;;;3.47;;
72087;SDS011;59961;50.232;8.616;2022-07-23T06:45:07;6.90;;;4.17;;
72087;SDS011;59961;50.232;8.616;2022-07-23T06:47:32;8.40;;;4.20;;
72087;SDS011;59961;50.232;8.616;2022-07-23T06:49:58;9.40;;;3.75;;
72087;SDS011;59961;50.232;8.616;2022-07-23T06:52:23;6.97;;;3.50;;
72087;SDS011;59961;50.232;8.616;2022-07-23T06:54:48;6.77;;;3.70;;
72087;SDS011;59961;50.232;8.616;2022-07-23T06:57:14;7.60;;;4.03;;
72087;SDS011;59961;50.232;8.616;2022-07-23T06:59:39;8.30;;;4.03;;
72087;SDS011;59961;50.232;8.616;2022-07-23T07:02:05;8.75;;;3.75;;
72087;SDS011;59961;50.232;8.616;2022-07-23T07:04:30;7.17;;;3.53;;
72087;SDS011;59961;50.232;8.616;2022-07-23T07:06:56;8.63;;;4.20;;
72087;SDS011;59961;50.232;8.616;2022-07-23T07:09:22;7.27;;;3.43;;
72087;SDS011;59961;50.232;8.616;2022-07-23T07:11:47;6.67;;;3.30;;
72087;SDS011;59961;50.232;8.616;2022-07-23T07:14:12;7.95;;;3.60;;
72087;SDS011;59961;50.232;8.616;2022-07-23T07:16:37;7.50;;;3.63;;
72087;SDS011;59961;50.232;8.616;2022-07-23T07:19:02;5.27;;;3.03;;
72087;SDS011;59961;50.232;8.616;2022-07-23T07:21:27;6.80;;;3.17;;
72087;SDS011;59961;50.232;8.616;2022-07-23T07:23:53;5.73;;;3.30;;
72087;SDS011;59961;50.232;8.616;2022-07-23T07:26:18;7.03;;;3.65;;
72087;SDS011;59961;50.232;8.616;2022-07-23T07:28:43;5.67;;;2.80;;
72087;SDS011;59961;50.232;8.616;2022-07-23T07:31:08;6.43;;;3.37;;
72087;SDS011;59961;50.232;8.616;2022-07-23T07:33:33;5.53;;;3.17;;
72087;SDS011;59961;50.232;8.616;2022-07-23T07:35:58;6.55;;;3.03;;
72087;SDS011;59961;50.232;8.616;2022-07-23T07:38:25;6.10;;;3.13;;
72087;SDS011;59961;50.232;8.616;2022-07-23T07:40:50;7.53;;;3.10;;
72087;SDS011;59961;50.232;8.616;2022-07-23T07:43:15;5.80;;;3.40;;
72087;SDS011;59961;50.232;8.616;2022-07-23T07:45:40;5.70;;;3.23;;
72087;SDS011;59961;50.232;8.616;2022-07-23T07:48:06;5.93;;;3.30;;
72087;SDS011;59961;50.232;8.616;2022-07-23T07:50:31;6.37;;;3.43;;
72087;SDS011;59961;50.232;8.616;2022-07-23T07:52:56;5.17;;;3.10;;
72087;SDS011;59961;50.232;8.616;2022-07-23T07:55:21;7.73;;;3.50;;
72087;SDS011;59961;50.232;8.616;2022-07-23T07:57:46;6.72;;;3.38;;
72087;SDS011;59961;50.232;8.616;2022-07-23T08:00:12;5.80;;;3.33;;
72087;SDS011;59961;50.232;8.616;2022-07-23T08:02:41;5.40;;;3.43;;
72087;SDS011;59961;50.232;8.616;2022-07-23T08:05:06;6.70;;;2.83;;
72087;SDS011;59961;50.232;8.616;2022-07-23T08:07:31;5.60;;;3.10;;
72087;SDS011;59961;50.232;8.616;2022-07-23T08:09:56;5.60;;;3.07;;
72087;SDS011;59961;50.232;8.616;2022-07-23T08:12:22;7.35;;;3.45;;
72087;SDS011;59961;50.232;8.616;2022-07-23T08:14:47;6.72;;;3.40;;
72087;SDS011;59961;50.232;8.616;2022-07-23T08:17:12;7.03;;;3.03;;
72087;SDS011;59961;50.232;8.616;2022-07-23T08:19:37;6.43;;;3.40;;
72087;SDS011;59961;50.232;8.616;2022-07-23T08:22:02;5.60;;;2.97;;
72087;SDS011;59961;50.232;8.616;2022-07-23T08:24:28;5.93;;;3.07;;
72087;SDS011;59961;50.232;8.616;2022-07-23T08:26:53;7.72;;;3.28;;
72087;SDS011;59961;50.232;8.616;2022-07-23T08:29:18;4.65;;;2.88;;
72087;SDS011;59961;50.232;8.616;2022-07-23T08:31:43;5.50;;;2.90;;
72087;SDS011;59961;50.232;8.616;2022-07-23T08:34:10;6.13;;;3.00;;
72087;SDS011;59961;50.232;8.616;2022-07-23T08:36:35;6.05;;;3.30;;
72087;SDS011;59961;50.232;8.616;2022-07-23T08:39:00;5.93;;;3.23;;
72087;SDS011;59961;50.232;8.616;2022-07-23T08:41:28;6.70;;;2.85;;
72087;SDS011;59961;50.232;8.616;2022-07-23T08:43:53;6.63;;;3.13;;
72087;SDS011;59961;50.232;8.616;2022-07-23T08:46:19;5.17;;;2.93;;
72087;SDS011;59961;50.232;8.616;2022-07-23T08:48:44;6.57;;;3.33;;
72087;SDS011;59961;50.232;8.616;2022-07-23T08:51:11;6.07;;;3.20;;
72087;SDS011;59961;50.232;8.616;2022-07-23T08:53:37;6.50;;;3.00;;
72087;SDS011;59961;50.232;8.616;2022-07-23T08:56:04;6.25;;;3.30;;
72087;SDS011;59961;50.232;8.616;2022-07-23T08:58:29;4.85;;;2.80;;
72087;SDS011;59961;50.232;8.616;2022-07-23T09:00:55;6.50;;;3.37;;
72087;SDS011;59961;50.232;8.616;2022-07-23T09:03:27;7.32;;;3.17;;
72087;SDS011;59961;50.232;8.616;2022-07-23T09:05:52;5.18;;;3.00;;
72087;SDS011;59961;50.232;8.616;2022-07-23T09:08:22;7.60;;;2.93;;
72087;SDS011;59961;50.232;8.616;2022-07-23T09:13:58;6.83;;;3.83;;
72087;SDS011;59961;50.232;8.616;2022-07-23T09:15:59;6.03;;;3.08;;
72087;SDS011;59961;50.232;8.616;2022-07-23T09:18:36;10.50;;;3.60;;
72087;SDS011;59961;50.232;8.616;2022-07-23T09:21:07;4.77;;;2.87;;
72087;SDS011;59961;50.232;8.616;2022-07-23T09:23:49;4.97;;;3.15;;
72087;SDS011;59961;50.232;8.616;2022-07-23T09:28:52;6.28;;;3.25;;
72087;SDS011;59961;50.232;8.616;2022-07-23T09:31:18;6.05;;;2.78;;
72087;SDS011;59961;50.232;8.616;2022-07-23T09:33:43;6.97;;;4.47;;
72087;SDS011;59961;50.232;8.616;2022-07-23T09:36:09;6.00;;;3.30;;
72087;SDS011;59961;50.232;8.616;2022-07-23T09:38:34;6.67;;;3.33;;
72087;SDS011;59961;50.232;8.616;2022-07-23T09:41:12;6.82;;;3.30;;
72087;SDS011;59961;50.232;8.616;2022-07-23T09:43:38;5.90;;;3.40;;
72087;SDS011;59961;50.232;8.616;2022-07-23T09:46:46;7.40;;;3.58;;
72087;SDS011;59961;50.232;8.616;2022-07-23T09:48:52;7.97;;;3.83;;
72087;SDS011;59961;50.232;8.616;2022-07-23T09:51:18;6.43;;;3.47;;
72087;SDS011;59961;50.232;8.616;2022-07-23T09:54:02;6.15;;;3.35;;
72087;SDS011;59961;50.232;8.616;2022-07-23T09:56:27;8.30;;;3.83;;
72087;SDS011;59961;50.232;8.616;2022-07-23T09:58:52;7.38;;;3.50;;
72087;SDS011;59961;50.232;8.616;2022-07-23T10:01:28;5.65;;;3.50;;
72087;SDS011;59961;50.232;8.616;2022-07-23T10:03:54;8.47;;;3.47;;
72087;SDS011;59961;50.232;8.616;2022-07-23T10:06:19;5.20;;;3.10;;
72087;SDS011;59961;50.232;8.616;2022-07-23T10:08:44;5.43;;;3.60;;
72087;SDS011;59961;50.232;8.616;2022-07-23T10:11:11;7.40;;;3.28;;
72087;SDS011;59961;50.232;8.616;2022-07-23T10:13:39;6.45;;;3.58;;
72087;SDS011;59961;50.232;8.616;2022-07-23T10:16:19;4.63;;;2.65;;
72087;SDS011;59961;50.232;8.616;2022-07-23T10:18:46;5.57;;;2.90;;
72087;SDS011;59961;50.232;8.616;2022-07-23T10:21:11;6.30;;;3.15;;
72087;SDS011;59961;50.232;8.616;2022-07-23T10:26:05;5.93;;;3.13;;
72087;SDS011;59961;50.232;8.616;2022-07-23T10:28:42;5.07;;;3.35;;
72087;SDS011;59961;50.232;8.616;2022-07-23T10:36:40;6.40;;;3.08;;
72087;SDS011;59961;50.232;8.616;2022-07-23T10:39:12;5.53;;;3.25;;
72087;SDS011;59961;50.232;8.616;2022-07-23T10:41:39;9.52;;;3.40;;
72087;SDS011;59961;50.232;8.616;2022-07-23T10:44:09;4.87;;;3.20;;
72087;SDS011;59961;50.232;8.616;2022-07-23T10:46:34;7.43;;;3.30;;
72087;SDS011;59961;50.232;8.616;2022-07-23T10:49:22;5.78;;;3.22;;
72087;SDS011;59961;50.232;8.616;2022-07-23T10:54:32;5.17;;;3.10;;
72087;SDS011;59961;50.232;8.616;2022-07-23T10:59:22;5.20;;;2.87;;
72087;SDS011;59961;50.232;8.616;2022-07-23T11:01:47;6.65;;;3.33;;
72087;SDS011;59961;50.232;8.616;2022-07-23T11:04:12;6.10;;;3.17;;
72087;SDS011;59961;50.232;8.616;2022-07-23T11:11:49;7.07;;;3.50;;
72087;SDS011;59961;50.232;8.616;2022-07-23T11:14:15;5.83;;;3.37;;
72087;SDS011;59961;50.232;8.616;2022-07-23T11:16:46;6.30;;;3.57;;
72087;SDS011;59961;50.232;8.616;2022-07-23T11:19:12;5.65;;;3.65;;
72087;SDS011;59961;50.232;8.616;2022-07-23T11:24:04;5.47;;;3.35;;
72087;SDS011;59961;50.232;8.616;2022-07-23T11:36:56;6.63;;;3.58;;
72087;SDS011;59961;50.232;8.616;2022-07-23T11:39:21;7.07;;;3.53;;
72087;SDS011;59961;50.232;8.616;2022-07-23T11:41:49;6.60;;;3.97;;
72087;SDS011;59961;50.232;8.616;2022-07-23T11:44:27;6.43;;;3.17;;
72087;SDS011;59961;50.232;8.616;2022-07-23T11:46:56;5.85;;;4.00;;
72087;SDS011;59961;50.232;8.616;2022-07-23T11:49:22;5.68;;;3.45;;
72087;SDS011;59961;50.232;8.616;2022-07-23T11:51:53;6.70;;;4.50;;
72087;SDS011;59961;50.232;8.616;2022-07-23T11:54:26;6.22;;;4.15;;
72087;SDS011;59961;50.232;8.616;2022-07-23T11:56:55;7.07;;;4.00;;
72087;SDS011;59961;50.232;8.616;2022-07-23T11:59:21;5.75;;;3.60;;
72087;SDS011;59961;50.232;8.616;2022-07-23T12:01:59;6.30;;;3.50;;
72087;SDS011;59961;50.232;8.616;2022-07-23T12:04:40;5.23;;;3.30;;
72087;SDS011;59961;50.232;8.616;2022-07-23T12:09:49;6.78;;;4.10;;
72087;SDS011;59961;50.232;8.616;2022-07-23T12:12:14;8.03;;;3.40;;
72087;SDS011;59961;50.232;8.616;2022-07-23T12:14:50;5.90;;;3.40;;
72087;SDS011;59961;50.232;8.616;2022-07-23T12:17:15;7.05;;;3.88;;
72087;SDS011;59961;50.232;8.616;2022-07-23T12:19:41;7.20;;;4.17;;
72087;SDS011;59961;50.232;8.616;2022-07-23T12:22:06;8.63;;;4.10;;
72087;SDS011;59961;50.232;8.616;2022-07-23T12:24:51;6.00;;;3.60;;
72087;SDS011;59961;50.232;8.616;2022-07-23T12:27:19;7.83;;;4.40;;
72087;SDS011;59961;50.232;8.616;2022-07-23T12:29:45;7.00;;;4.15;;
72087;SDS011;59961;50.232;8.616;2022-07-23T12:32:17;6.53;;;3.60;;
72087;SDS011;59961;50.232;8.616;2022-07-23T12:34:42;7.32;;;4.70;;
72087;SDS011;59961;50.232;8.616;2022-07-23T12:37:07;6.60;;;4.10;;
72087;SDS011;59961;50.232;8.616;2022-07-23T12:39:32;6.97;;;4.05;;
72087;SDS011;59961;50.232;8.616;2022-07-23T12:41:57;6.17;;;4.00;;
72087;SDS011;59961;50.232;8.616;2022-07-23T12:44:23;6.73;;;4.33;;
72087;SDS011;59961;50.232;8.616;2022-07-23T12:46:54;6.20;;;4.00;;
72087;SDS011;59961;50.232;8.616;2022-07-23T12:49:28;8.40;;;4.63;;
72087;SDS011;59961;50.232;8.616;2022-07-23T12:51:53;7.88;;;4.32;;
72087;SDS011;59961;50.232;8.616;2022-07-23T12:54:19;7.20;;;4.27;;
72087;SDS011;59961;50.232;8.616;2022-07-23T12:56:51;6.70;;;3.63;;
72087;SDS011;59961;50.232;8.616;2022-07-23T12:59:16;6.63;;;4.07;;
72087;SDS011;59961;50.232;8.616;2022-07-23T13:01:42;7.27;;;4.53;;
72087;SDS011;59961;50.232;8.616;2022-07-23T13:04:09;6.70;;;4.03;;
72087;SDS011;59961;50.232;8.616;2022-07-23T13:06:40;6.43;;;4.30;;
72087;SDS011;59961;50.232;8.616;2022-07-23T13:09:06;7.00;;;3.95;;
72087;SDS011;59961;50.232;8.616;2022-07-23T13:11:32;6.63;;;4.15;;
72087;SDS011;59961;50.232;8.616;2022-07-23T13:13:57;6.83;;;4.13;;
72087;SDS011;59961;50.232;8.616;2022-07-23T13:16:22;9.00;;;4.35;;
72087;SDS011;59961;50.232;8.616;2022-07-23T13:18:47;7.90;;;4.80;;
72087;SDS011;59961;50.232;8.616;2022-07-23T13:21:13;6.53;;;4.13;;
72087;SDS011;59961;50.232;8.616;2022-07-23T13:23:38;6.37;;;3.93;;
72087;SDS011;59961;50.232;8.616;2022-07-23T13:26:03;7.47;;;4.53;;
72087;SDS011;59961;50.232;8.616;2022-07-23T13:28:28;9.27;;;4.50;;
72087;SDS011;59961;50.232;8.616;2022-07-23T13:30:54;6.13;;;4.17;;
72087;SDS011;59961;50.232;8.616;2022-07-23T13:33:21;9.30;;;4.43;;
72087;SDS011;59961;50.232;8.616;2022-07-23T13:35:46;8.02;;;5.03;;
72087;SDS011;59961;50.232;8.616;2022-07-23T13:38:12;9.27;;;4.50;;
72087;SDS011;59961;50.232;8.616;2022-07-23T13:40:38;7.07;;;4.77;;
72087;SDS011;59961;50.232;8.616;2022-07-23T13:43:04;6.43;;;4.15;;
72087;SDS011;59961;50.232;8.616;2022-07-23T13:45:29;6.13;;;4.20;;
72087;SDS011;59961;50.232;8.616;2022-07-23T13:47:54;7.17;;;4.40;;
72087;SDS011;59961;50.232;8.616;2022-07-23T13:50:19;7.10;;;4.00;;
72087;SDS011;59961;50.232;8.616;2022-07-23T13:52:45;7.27;;;4.13;;
72087;SDS011;59961;50.232;8.616;2022-07-23T13:55:10;6.40;;;3.83;;
72087;SDS011;59961;50.232;8.616;2022-07-23T13:57:35;7.13;;;4.43;;
72087;SDS011;59961;50.232;8.616;2022-07-23T14:00:00;6.10;;;4.13;;
72087;SDS011;59961;50.232;8.616;2022-07-23T14:02:25;13.27;;;4.50;;
72087;SDS011;59961;50.232;8.616;2022-07-23T14:04:51;6.30;;;4.40;;
72087;SDS011;59961;50.232;8.616;2022-07-23T14:07:17;7.63;;;4.23;;
72087;SDS011;59961;50.232;8.616;2022-07-23T14:09:42;7.63;;;4.70;;
72087;SDS011;59961;50.232;8.616;2022-07-23T14:12:07;7.03;;;3.93;;
72087;SDS011;59961;50.232;8.616;2022-07-23T14:14:33;10.63;;;4.60;;
72087;SDS011;59961;50.232;8.616;2022-07-23T14:16:58;6.47;;;3.63;;
72087;SDS011;59961;50.232;8.616;2022-07-23T14:19:23;9.40;;;4.10;;
72087;SDS011;59961;50.232;8.616;2022-07-23T14:21:48;10.00;;;4.80;;
72087;SDS011;59961;50.232;8.616;2022-07-23T14:24:14;6.90;;;4.80;;
72087;SDS011;59961;50.232;8.616;2022-07-23T14:26:39;6.50;;;4.00;;
72087;SDS011;59961;50.232;8.616;2022-07-23T14:29:04;7.10;;;4.20;;
72087;SDS011;59961;50.232;8.616;2022-07-23T14:31:29;7.33;;;4.33;;
72087;SDS011;59961;50.232;8.616;2022-07-23T14:33:55;7.63;;;4.63;;
72087;SDS011;59961;50.232;8.616;2022-07-23T14:36:20;7.18;;;4.32;;
72087;SDS011;59961;50.232;8.616;2022-07-23T14:38:45;6.80;;;3.80;;
72087;SDS011;59961;50.232;8.616;2022-07-23T14:41:10;7.90;;;3.83;;
72087;SDS011;59961;50.232;8.616;2022-07-23T14:43:35;6.10;;;3.90;;
72087;SDS011;59961;50.232;8.616;2022-07-23T14:46:01;6.47;;;3.70;;
72087;SDS011;59961;50.232;8.616;2022-07-23T14:48:26;7.32;;;4.07;;
72087;SDS011;59961;50.232;8.616;2022-07-23T14:50:51;6.73;;;4.20;;
72087;SDS011;59961;50.232;8.616;2022-07-23T14:53:16;5.67;;;3.63;;
72087;SDS011;59961;50.232;8.616;2022-07-23T14:55:41;6.60;;;3.73;;
72087;SDS011;59961;50.232;8.616;2022-07-23T14:58:07;6.03;;;3.63;;
72087;SDS011;59961;50.232;8.616;2022-07-23T15:00:32;6.50;;;3.80;;
72087;SDS011;59961;50.232;8.616;2022-07-23T15:02:57;6.57;;;3.50;;
72087;SDS011;59961;50.232;8.616;2022-07-23T15:05:23;7.37;;;3.60;;
72087;SDS011;59961;50.232;8.616;2022-07-23T15:07:48;5.33;;;3.53;;
72087;SDS011;59961;50.232;8.616;2022-07-23T15:10:13;7.10;;;3.00;;
72087;SDS011;59961;50.232;8.616;2022-07-23T15:12:38;5.38;;;3.15;;
72087;SDS011;59961;50.232;8.616;2022-07-23T15:15:04;6.17;;;3.20;;
72087;SDS011;59961;50.232;8.616;2022-07-23T15:17:29;4.90;;;3.40;;